sensor_id;sensor_type;location;lat;lon;timestamp;P1;durP1;ratioP1;P2;durP2;ratioP2
47219;SDS011;32961;51.936;4.788;2023-07-13T00:02:19;17.63;;;2.72;;
47219;SDS011;32961;51.936;4.788;2023-07-13T00:04:48;10.68;;;2.75;;
47219;SDS011;32961;51.936;4.788;2023-07-13T00:07:17;16.52;;;2.92;;
47219;SDS011;32961;51.936;4.788;2023-07-13T00:09:46;9.82;;;2.45;;
47219;SDS011;32961;51.936;4.788;2023-07-13T00:12:24;12.00;;;2.58;;
47219;SDS011;32961;51.936;4.788;2023-07-13T00:14:54;14.07;;;3.03;;
47219;SDS011;32961;51.936;4.788;2023-07-13T00:17:24;11.63;;;2.50;;
47219;SDS011;32961;51.936;4.788;2023-07-13T00:19:51;12.60;;;2.50;;
47219;SDS011;32961;51.936;4.788;2023-07-13T00:22:21;13.55;;;2.80;;
47219;SDS011;32961;51.936;4.788;2023-07-13T00:24:50;15.93;;;2.90;;
47219;SDS011;32961;51.936;4.788;2023-07-13T00:27:18;13.25;;;2.70;;
47219;SDS011;32961;51.936;4.788;2023-07-13T00:29:46;14.63;;;2.97;;
47219;SDS011;32961;51.936;4.788;2023-07-13T00:32:14;13.68;;;2.72;;
47219;SDS011;32961;51.936;4.788;2023-07-13T00:34:42;16.23;;;2.67;;
47219;SDS011;32961;51.936;4.788;2023-07-13T00:37:10;15.80;;;2.90;;
47219;SDS011;32961;51.936;4.788;2023-07-13T00:39:39;14.10;;;3.88;;
47219;SDS011;32961;51.936;4.788;2023-07-13T00:42:07;16.35;;;3.55;;
47219;SDS011;32961;51.936;4.788;2023-07-13T00:44:35;14.10;;;3.05;;
47219;SDS011;32961;51.936;4.788;2023-07-13T00:47:03;13.65;;;3.00;;
47219;SDS011;32961;51.936;4.788;2023-07-13T00:49:31;15.43;;;2.67;;
47219;SDS011;32961;51.936;4.788;2023-07-13T00:52:02;14.35;;;2.53;;
47219;SDS011;32961;51.936;4.788;2023-07-13T00:54:33;12.63;;;2.30;;
47219;SDS011;32961;51.936;4.788;2023-07-13T00:57:06;15.02;;;3.13;;
47219;SDS011;32961;51.936;4.788;2023-07-13T00:59:36;9.90;;;2.88;;
47219;SDS011;32961;51.936;4.788;2023-07-13T01:02:09;9.23;;;2.60;;
47219;SDS011;32961;51.936;4.788;2023-07-13T01:04:38;11.60;;;2.50;;
47219;SDS011;32961;51.936;4.788;2023-07-13T01:07:08;10.65;;;2.95;;
47219;SDS011;32961;51.936;4.788;2023-07-13T01:09:36;18.17;;;2.70;;
47219;SDS011;32961;51.936;4.788;2023-07-13T01:12:06;11.13;;;2.20;;
47219;SDS011;32961;51.936;4.788;2023-07-13T01:14:35;27.63;;;2.97;;
47219;SDS011;32961;51.936;4.788;2023-07-13T01:17:03;15.10;;;2.95;;
47219;SDS011;32961;51.936;4.788;2023-07-13T01:19:33;14.88;;;2.65;;
47219;SDS011;32961;51.936;4.788;2023-07-13T01:22:05;14.40;;;2.80;;
47219;SDS011;32961;51.936;4.788;2023-07-13T01:24:35;19.35;;;3.17;;
47219;SDS011;32961;51.936;4.788;2023-07-13T01:27:03;11.20;;;2.55;;
47219;SDS011;32961;51.936;4.788;2023-07-13T01:29:33;10.40;;;2.60;;
47219;SDS011;32961;51.936;4.788;2023-07-13T01:32:08;9.82;;;2.53;;
47219;SDS011;32961;51.936;4.788;2023-07-13T01:34:37;13.20;;;2.70;;
47219;SDS011;32961;51.936;4.788;2023-07-13T01:37:10;12.90;;;3.03;;
47219;SDS011;32961;51.936;4.788;2023-07-13T01:39:39;12.85;;;3.20;;
47219;SDS011;32961;51.936;4.788;2023-07-13T01:42:07;13.75;;;2.90;;
47219;SDS011;32961;51.936;4.788;2023-07-13T01:44:35;16.45;;;3.10;;
47219;SDS011;32961;51.936;4.788;2023-07-13T01:47:03;14.15;;;3.30;;
47219;SDS011;32961;51.936;4.788;2023-07-13T01:49:31;23.88;;;4.00;;
47219;SDS011;32961;51.936;4.788;2023-07-13T01:51:59;16.90;;;4.57;;
47219;SDS011;32961;51.936;4.788;2023-07-13T01:54:28;16.42;;;3.00;;
47219;SDS011;32961;51.936;4.788;2023-07-13T01:56:56;16.02;;;3.38;;
47219;SDS011;32961;51.936;4.788;2023-07-13T01:59:24;21.13;;;3.85;;
47219;SDS011;32961;51.936;4.788;2023-07-13T02:01:52;15.85;;;3.08;;
47219;SDS011;32961;51.936;4.788;2023-07-13T02:04:20;15.95;;;3.22;;
47219;SDS011;32961;51.936;4.788;2023-07-13T02:06:47;11.57;;;2.72;;
47219;SDS011;32961;51.936;4.788;2023-07-13T02:09:15;11.88;;;2.50;;
47219;SDS011;32961;51.936;4.788;2023-07-13T02:11:45;26.40;;;3.15;;
47219;SDS011;32961;51.936;4.788;2023-07-13T02:14:12;15.73;;;3.10;;
47219;SDS011;32961;51.936;4.788;2023-07-13T02:16:41;14.02;;;2.47;;
47219;SDS011;32961;51.936;4.788;2023-07-13T02:19:09;10.60;;;2.80;;
47219;SDS011;32961;51.936;4.788;2023-07-13T02:21:37;17.42;;;3.50;;
47219;SDS011;32961;51.936;4.788;2023-07-13T02:24:05;8.48;;;2.63;;
47219;SDS011;32961;51.936;4.788;2023-07-13T02:26:33;14.88;;;2.55;;
47219;SDS011;32961;51.936;4.788;2023-07-13T02:29:02;10.98;;;2.40;;
47219;SDS011;32961;51.936;4.788;2023-07-13T02:31:30;13.30;;;2.75;;
47219;SDS011;32961;51.936;4.788;2023-07-13T02:33:57;16.05;;;3.17;;
47219;SDS011;32961;51.936;4.788;2023-07-13T02:36:25;16.83;;;2.50;;
47219;SDS011;32961;51.936;4.788;2023-07-13T02:38:53;11.52;;;2.70;;
47219;SDS011;32961;51.936;4.788;2023-07-13T02:41:21;15.27;;;3.10;;
47219;SDS011;32961;51.936;4.788;2023-07-13T02:43:49;7.57;;;2.30;;
47219;SDS011;32961;51.936;4.788;2023-07-13T02:46:18;12.15;;;2.83;;
47219;SDS011;32961;51.936;4.788;2023-07-13T02:48:47;11.88;;;2.45;;
47219;SDS011;32961;51.936;4.788;2023-07-13T02:51:14;11.70;;;3.60;;
47219;SDS011;32961;51.936;4.788;2023-07-13T02:53:42;14.85;;;3.00;;
47219;SDS011;32961;51.936;4.788;2023-07-13T02:56:10;13.57;;;2.88;;
47219;SDS011;32961;51.936;4.788;2023-07-13T02:58:42;22.27;;;3.92;;
47219;SDS011;32961;51.936;4.788;2023-07-13T03:01:10;22.50;;;4.10;;
47219;SDS011;32961;51.936;4.788;2023-07-13T03:03:40;19.00;;;4.22;;
47219;SDS011;32961;51.936;4.788;2023-07-13T03:06:08;10.43;;;3.05;;
47219;SDS011;32961;51.936;4.788;2023-07-13T03:08:36;18.27;;;3.75;;
47219;SDS011;32961;51.936;4.788;2023-07-13T03:11:05;22.63;;;3.42;;
47219;SDS011;32961;51.936;4.788;2023-07-13T03:13:35;16.50;;;3.60;;
47219;SDS011;32961;51.936;4.788;2023-07-13T03:16:03;19.77;;;3.72;;
47219;SDS011;32961;51.936;4.788;2023-07-13T03:18:31;11.68;;;3.47;;
47219;SDS011;32961;51.936;4.788;2023-07-13T03:21:01;19.00;;;4.22;;
47219;SDS011;32961;51.936;4.788;2023-07-13T03:23:29;27.08;;;4.35;;
47219;SDS011;32961;51.936;4.788;2023-07-13T03:26:04;24.52;;;5.72;;
47219;SDS011;32961;51.936;4.788;2023-07-13T03:28:33;19.23;;;3.90;;
47219;SDS011;32961;51.936;4.788;2023-07-13T03:31:02;27.48;;;5.82;;
47219;SDS011;32961;51.936;4.788;2023-07-13T03:33:32;15.45;;;3.85;;
47219;SDS011;32961;51.936;4.788;2023-07-13T03:36:02;17.05;;;3.97;;
47219;SDS011;32961;51.936;4.788;2023-07-13T03:38:30;27.70;;;6.18;;
47219;SDS011;32961;51.936;4.788;2023-07-13T03:40:58;26.48;;;4.20;;
47219;SDS011;32961;51.936;4.788;2023-07-13T03:43:27;23.52;;;5.00;;
47219;SDS011;32961;51.936;4.788;2023-07-13T03:45:54;24.30;;;5.35;;
47219;SDS011;32961;51.936;4.788;2023-07-13T03:48:22;24.77;;;5.15;;
47219;SDS011;32961;51.936;4.788;2023-07-13T03:50:50;29.77;;;5.80;;
47219;SDS011;32961;51.936;4.788;2023-07-13T03:53:19;22.77;;;4.22;;
47219;SDS011;32961;51.936;4.788;2023-07-13T03:55:47;19.48;;;5.35;;
47219;SDS011;32961;51.936;4.788;2023-07-13T03:58:26;22.58;;;5.50;;
47219;SDS011;32961;51.936;4.788;2023-07-13T04:00:56;17.83;;;4.70;;
47219;SDS011;32961;51.936;4.788;2023-07-13T04:03:25;20.98;;;4.95;;
47219;SDS011;32961;51.936;4.788;2023-07-13T04:05:54;18.23;;;5.00;;
47219;SDS011;32961;51.936;4.788;2023-07-13T04:08:28;23.00;;;4.90;;
47219;SDS011;32961;51.936;4.788;2023-07-13T04:10:57;22.27;;;4.55;;
47219;SDS011;32961;51.936;4.788;2023-07-13T04:13:25;20.38;;;5.45;;
47219;SDS011;32961;51.936;4.788;2023-07-13T04:15:53;21.35;;;5.15;;
47219;SDS011;32961;51.936;4.788;2023-07-13T04:18:22;26.70;;;5.18;;
47219;SDS011;32961;51.936;4.788;2023-07-13T04:20:49;42.08;;;7.28;;
47219;SDS011;32961;51.936;4.788;2023-07-13T04:23:18;28.60;;;5.55;;
47219;SDS011;32961;51.936;4.788;2023-07-13T04:25:48;27.40;;;5.40;;
47219;SDS011;32961;51.936;4.788;2023-07-13T04:28:20;20.45;;;4.68;;
47219;SDS011;32961;51.936;4.788;2023-07-13T04:30:49;23.33;;;4.82;;
47219;SDS011;32961;51.936;4.788;2023-07-13T04:33:17;24.20;;;6.47;;
47219;SDS011;32961;51.936;4.788;2023-07-13T04:35:48;23.02;;;4.88;;
47219;SDS011;32961;51.936;4.788;2023-07-13T04:38:22;26.48;;;5.45;;
47219;SDS011;32961;51.936;4.788;2023-07-13T04:40:52;33.90;;;6.68;;
47219;SDS011;32961;51.936;4.788;2023-07-13T04:43:22;19.83;;;4.63;;
47219;SDS011;32961;51.936;4.788;2023-07-13T04:45:50;24.88;;;4.95;;
47219;SDS011;32961;51.936;4.788;2023-07-13T04:48:18;22.20;;;5.28;;
47219;SDS011;32961;51.936;4.788;2023-07-13T04:50:46;24.48;;;5.85;;
47219;SDS011;32961;51.936;4.788;2023-07-13T04:53:16;29.92;;;7.10;;
47219;SDS011;32961;51.936;4.788;2023-07-13T04:55:44;20.20;;;5.95;;
47219;SDS011;32961;51.936;4.788;2023-07-13T04:58:14;26.10;;;5.32;;
47219;SDS011;32961;51.936;4.788;2023-07-13T05:00:42;29.95;;;5.32;;
47219;SDS011;32961;51.936;4.788;2023-07-13T05:03:10;23.23;;;5.43;;
47219;SDS011;32961;51.936;4.788;2023-07-13T05:05:38;26.02;;;6.70;;
47219;SDS011;32961;51.936;4.788;2023-07-13T05:08:06;17.40;;;4.65;;
47219;SDS011;32961;51.936;4.788;2023-07-13T05:10:34;33.85;;;5.32;;
47219;SDS011;32961;51.936;4.788;2023-07-13T05:13:02;25.55;;;5.45;;
47219;SDS011;32961;51.936;4.788;2023-07-13T05:15:32;21.35;;;5.07;;
47219;SDS011;32961;51.936;4.788;2023-07-13T05:18:00;31.23;;;6.00;;
47219;SDS011;32961;51.936;4.788;2023-07-13T05:20:28;27.25;;;6.82;;
47219;SDS011;32961;51.936;4.788;2023-07-13T05:22:56;27.17;;;7.38;;
47219;SDS011;32961;51.936;4.788;2023-07-13T05:25:25;21.38;;;5.07;;
47219;SDS011;32961;51.936;4.788;2023-07-13T05:27:52;24.50;;;5.95;;
47219;SDS011;32961;51.936;4.788;2023-07-13T05:30:20;28.30;;;6.93;;
47219;SDS011;32961;51.936;4.788;2023-07-13T05:32:49;30.33;;;7.45;;
47219;SDS011;32961;51.936;4.788;2023-07-13T05:35:17;30.88;;;8.35;;
47219;SDS011;32961;51.936;4.788;2023-07-13T05:37:45;29.52;;;6.68;;
47219;SDS011;32961;51.936;4.788;2023-07-13T05:40:13;29.02;;;6.78;;
47219;SDS011;32961;51.936;4.788;2023-07-13T05:42:40;20.17;;;5.38;;
47219;SDS011;32961;51.936;4.788;2023-07-13T05:45:09;27.42;;;5.47;;
47219;SDS011;32961;51.936;4.788;2023-07-13T05:47:36;22.42;;;5.25;;
47219;SDS011;32961;51.936;4.788;2023-07-13T05:50:06;23.10;;;5.88;;
47219;SDS011;32961;51.936;4.788;2023-07-13T05:52:35;21.75;;;4.93;;
47219;SDS011;32961;51.936;4.788;2023-07-13T05:55:04;24.17;;;5.30;;
47219;SDS011;32961;51.936;4.788;2023-07-13T05:57:32;24.40;;;4.60;;
47219;SDS011;32961;51.936;4.788;2023-07-13T06:00:00;24.67;;;5.93;;
47219;SDS011;32961;51.936;4.788;2023-07-13T06:02:28;24.27;;;5.40;;
47219;SDS011;32961;51.936;4.788;2023-07-13T06:04:55;29.38;;;5.43;;
47219;SDS011;32961;51.936;4.788;2023-07-13T06:07:25;21.60;;;4.95;;
47219;SDS011;32961;51.936;4.788;2023-07-13T06:09:52;27.27;;;5.93;;
47219;SDS011;32961;51.936;4.788;2023-07-13T06:12:20;21.35;;;5.57;;
47219;SDS011;32961;51.936;4.788;2023-07-13T06:14:48;19.70;;;4.95;;
47219;SDS011;32961;51.936;4.788;2023-07-13T06:17:16;29.55;;;6.15;;
47219;SDS011;32961;51.936;4.788;2023-07-13T06:19:44;26.90;;;5.82;;
47219;SDS011;32961;51.936;4.788;2023-07-13T06:22:12;22.30;;;5.13;;
47219;SDS011;32961;51.936;4.788;2023-07-13T06:24:41;18.85;;;4.75;;
47219;SDS011;32961;51.936;4.788;2023-07-13T06:27:09;18.95;;;5.47;;
47219;SDS011;32961;51.936;4.788;2023-07-13T06:29:37;25.25;;;5.22;;
47219;SDS011;32961;51.936;4.788;2023-07-13T06:32:06;21.50;;;5.30;;
47219;SDS011;32961;51.936;4.788;2023-07-13T06:34:35;24.23;;;4.90;;
47219;SDS011;32961;51.936;4.788;2023-07-13T06:37:03;23.70;;;5.30;;
47219;SDS011;32961;51.936;4.788;2023-07-13T06:39:30;21.60;;;5.70;;
47219;SDS011;32961;51.936;4.788;2023-07-13T06:42:00;23.73;;;4.95;;
47219;SDS011;32961;51.936;4.788;2023-07-13T06:44:28;20.25;;;5.55;;
47219;SDS011;32961;51.936;4.788;2023-07-13T06:46:55;24.88;;;5.40;;
47219;SDS011;32961;51.936;4.788;2023-07-13T06:49:23;19.42;;;6.63;;
47219;SDS011;32961;51.936;4.788;2023-07-13T06:51:51;23.92;;;6.53;;
47219;SDS011;32961;51.936;4.788;2023-07-13T06:54:19;25.80;;;7.13;;
47219;SDS011;32961;51.936;4.788;2023-07-13T06:56:47;27.58;;;7.72;;
47219;SDS011;32961;51.936;4.788;2023-07-13T06:59:16;22.85;;;6.50;;
47219;SDS011;32961;51.936;4.788;2023-07-13T07:01:44;19.92;;;4.97;;
47219;SDS011;32961;51.936;4.788;2023-07-13T07:04:12;20.23;;;5.63;;
47219;SDS011;32961;51.936;4.788;2023-07-13T07:06:39;19.77;;;5.50;;
47219;SDS011;32961;51.936;4.788;2023-07-13T07:09:07;22.40;;;6.38;;
47219;SDS011;32961;51.936;4.788;2023-07-13T07:11:35;18.52;;;5.60;;
47219;SDS011;32961;51.936;4.788;2023-07-13T07:14:09;26.70;;;7.65;;
47219;SDS011;32961;51.936;4.788;2023-07-13T07:16:38;27.15;;;7.43;;
47219;SDS011;32961;51.936;4.788;2023-07-13T07:19:06;21.30;;;6.22;;
47219;SDS011;32961;51.936;4.788;2023-07-13T07:21:34;26.42;;;6.53;;
47219;SDS011;32961;51.936;4.788;2023-07-13T07:24:02;20.80;;;5.65;;
47219;SDS011;32961;51.936;4.788;2023-07-13T07:26:30;25.80;;;6.13;;
47219;SDS011;32961;51.936;4.788;2023-07-13T07:29:09;28.13;;;7.50;;
47219;SDS011;32961;51.936;4.788;2023-07-13T07:31:42;19.48;;;5.43;;
47219;SDS011;32961;51.936;4.788;2023-07-13T07:34:12;17.55;;;4.72;;
47219;SDS011;32961;51.936;4.788;2023-07-13T07:36:40;23.00;;;5.15;;
47219;SDS011;32961;51.936;4.788;2023-07-13T07:39:11;18.73;;;5.07;;
47219;SDS011;32961;51.936;4.788;2023-07-13T07:44:14;17.60;;;4.53;;
47219;SDS011;32961;51.936;4.788;2023-07-13T07:46:43;11.90;;;3.83;;
47219;SDS011;32961;51.936;4.788;2023-07-13T07:49:11;14.75;;;4.28;;
47219;SDS011;32961;51.936;4.788;2023-07-13T07:51:39;12.55;;;3.65;;
47219;SDS011;32961;51.936;4.788;2023-07-13T07:54:07;8.70;;;2.83;;
47219;SDS011;32961;51.936;4.788;2023-07-13T07:56:42;5.45;;;2.42;;
47219;SDS011;32961;51.936;4.788;2023-07-13T07:59:13;6.38;;;2.50;;
47219;SDS011;32961;51.936;4.788;2023-07-13T08:01:45;6.28;;;2.13;;
47219;SDS011;32961;51.936;4.788;2023-07-13T08:04:17;7.70;;;2.17;;
47219;SDS011;32961;51.936;4.788;2023-07-13T08:06:47;5.57;;;2.00;;
47219;SDS011;32961;51.936;4.788;2023-07-13T08:09:15;3.83;;;1.90;;
47219;SDS011;32961;51.936;4.788;2023-07-13T08:11:43;7.07;;;1.83;;
47219;SDS011;32961;51.936;4.788;2023-07-13T08:14:15;7.13;;;2.85;;
47219;SDS011;32961;51.936;4.788;2023-07-13T08:16:44;5.90;;;2.00;;
47219;SDS011;32961;51.936;4.788;2023-07-13T08:19:12;10.43;;;3.22;;
47219;SDS011;32961;51.936;4.788;2023-07-13T08:21:40;11.63;;;2.80;;
47219;SDS011;32961;51.936;4.788;2023-07-13T08:24:09;9.65;;;3.08;;
47219;SDS011;32961;51.936;4.788;2023-07-13T08:26:37;10.15;;;3.70;;
47219;SDS011;32961;51.936;4.788;2023-07-13T08:29:05;12.30;;;3.05;;
47219;SDS011;32961;51.936;4.788;2023-07-13T08:31:33;10.98;;;3.03;;
47219;SDS011;32961;51.936;4.788;2023-07-13T08:34:05;9.85;;;2.88;;
47219;SDS011;32961;51.936;4.788;2023-07-13T08:36:32;12.05;;;3.15;;
47219;SDS011;32961;51.936;4.788;2023-07-13T08:39:00;12.05;;;3.15;;
47219;SDS011;32961;51.936;4.788;2023-07-13T08:41:28;7.55;;;3.17;;
47219;SDS011;32961;51.936;4.788;2023-07-13T08:43:57;7.13;;;2.70;;
47219;SDS011;32961;51.936;4.788;2023-07-13T08:46:32;12.57;;;3.40;;
47219;SDS011;32961;51.936;4.788;2023-07-13T08:49:05;14.33;;;4.87;;
47219;SDS011;32961;51.936;4.788;2023-07-13T08:51:40;9.23;;;2.70;;
47219;SDS011;32961;51.936;4.788;2023-07-13T08:54:19;8.18;;;2.78;;
47219;SDS011;32961;51.936;4.788;2023-07-13T08:56:51;13.32;;;3.72;;
47219;SDS011;32961;51.936;4.788;2023-07-13T08:59:22;11.13;;;3.17;;
47219;SDS011;32961;51.936;4.788;2023-07-13T09:01:57;15.85;;;3.60;;
47219;SDS011;32961;51.936;4.788;2023-07-13T09:04:36;9.55;;;2.80;;
47219;SDS011;32961;51.936;4.788;2023-07-13T09:07:11;8.15;;;2.35;;
47219;SDS011;32961;51.936;4.788;2023-07-13T09:09:49;5.78;;;2.45;;
47219;SDS011;32961;51.936;4.788;2023-07-13T09:12:31;6.88;;;2.22;;
47219;SDS011;32961;51.936;4.788;2023-07-13T09:17:52;8.77;;;2.50;;
47219;SDS011;32961;51.936;4.788;2023-07-13T09:20:25;7.57;;;2.15;;
47219;SDS011;32961;51.936;4.788;2023-07-13T09:22:56;12.32;;;2.85;;
47219;SDS011;32961;51.936;4.788;2023-07-13T09:25:29;8.27;;;2.97;;
47219;SDS011;32961;51.936;4.788;2023-07-13T09:27:59;8.73;;;3.10;;
47219;SDS011;32961;51.936;4.788;2023-07-13T09:30:37;5.10;;;2.22;;
47219;SDS011;32961;51.936;4.788;2023-07-13T09:33:11;10.93;;;2.30;;
47219;SDS011;32961;51.936;4.788;2023-07-13T09:35:42;7.90;;;2.63;;
47219;SDS011;32961;51.936;4.788;2023-07-13T09:38:11;7.38;;;2.42;;
47219;SDS011;32961;51.936;4.788;2023-07-13T09:40:53;6.90;;;2.80;;
47219;SDS011;32961;51.936;4.788;2023-07-13T09:43:27;15.55;;;3.40;;
47219;SDS011;32961;51.936;4.788;2023-07-13T09:45:55;6.97;;;2.65;;
47219;SDS011;32961;51.936;4.788;2023-07-13T09:48:23;11.77;;;3.13;;
47219;SDS011;32961;51.936;4.788;2023-07-13T09:50:55;6.43;;;2.67;;
47219;SDS011;32961;51.936;4.788;2023-07-13T09:53:24;7.43;;;2.90;;
47219;SDS011;32961;51.936;4.788;2023-07-13T09:55:58;8.60;;;3.03;;
47219;SDS011;32961;51.936;4.788;2023-07-13T09:58:26;10.20;;;2.90;;
47219;SDS011;32961;51.936;4.788;2023-07-13T10:00:59;5.60;;;2.45;;
47219;SDS011;32961;51.936;4.788;2023-07-13T10:03:32;9.85;;;3.25;;
47219;SDS011;32961;51.936;4.788;2023-07-13T10:06:11;9.55;;;3.22;;
47219;SDS011;32961;51.936;4.788;2023-07-13T10:08:40;5.50;;;2.75;;
47219;SDS011;32961;51.936;4.788;2023-07-13T10:11:09;8.98;;;3.28;;
47219;SDS011;32961;51.936;4.788;2023-07-13T10:13:40;8.73;;;3.58;;
47219;SDS011;32961;51.936;4.788;2023-07-13T10:16:11;7.85;;;2.58;;
47219;SDS011;32961;51.936;4.788;2023-07-13T10:18:43;6.43;;;2.45;;
47219;SDS011;32961;51.936;4.788;2023-07-13T10:21:16;8.98;;;3.03;;
47219;SDS011;32961;51.936;4.788;2023-07-13T10:24:03;10.00;;;3.20;;
47219;SDS011;32961;51.936;4.788;2023-07-13T10:26:37;9.95;;;3.05;;
47219;SDS011;32961;51.936;4.788;2023-07-13T10:29:13;9.45;;;3.15;;
47219;SDS011;32961;51.936;4.788;2023-07-13T10:31:44;7.60;;;2.80;;
47219;SDS011;32961;51.936;4.788;2023-07-13T10:34:13;10.32;;;3.17;;
47219;SDS011;32961;51.936;4.788;2023-07-13T10:36:43;13.07;;;3.17;;
47219;SDS011;32961;51.936;4.788;2023-07-13T10:39:15;11.07;;;3.38;;
47219;SDS011;32961;51.936;4.788;2023-07-13T10:41:46;12.00;;;3.55;;
47219;SDS011;32961;51.936;4.788;2023-07-13T10:44:19;12.55;;;3.03;;
47219;SDS011;32961;51.936;4.788;2023-07-13T10:46:53;7.65;;;2.88;;
47219;SDS011;32961;51.936;4.788;2023-07-13T10:49:23;6.45;;;2.30;;
47219;SDS011;32961;51.936;4.788;2023-07-13T10:51:55;7.88;;;3.90;;
47219;SDS011;32961;51.936;4.788;2023-07-13T10:54:26;7.95;;;2.70;;
47219;SDS011;32961;51.936;4.788;2023-07-13T10:57:07;5.93;;;2.20;;
47219;SDS011;32961;51.936;4.788;2023-07-13T10:59:47;7.40;;;2.35;;
47219;SDS011;32961;51.936;4.788;2023-07-13T11:02:21;4.70;;;1.80;;
47219;SDS011;32961;51.936;4.788;2023-07-13T11:04:52;9.63;;;1.85;;
47219;SDS011;32961;51.936;4.788;2023-07-13T11:07:24;7.40;;;2.22;;
47219;SDS011;32961;51.936;4.788;2023-07-13T11:09:54;8.25;;;2.38;;
47219;SDS011;32961;51.936;4.788;2023-07-13T11:12:28;7.25;;;2.00;;
47219;SDS011;32961;51.936;4.788;2023-07-13T11:15:12;5.18;;;2.05;;
47219;SDS011;32961;51.936;4.788;2023-07-13T11:17:50;3.83;;;1.77;;
47219;SDS011;32961;51.936;4.788;2023-07-13T11:23:20;3.75;;;1.85;;
47219;SDS011;32961;51.936;4.788;2023-07-13T11:25:56;3.75;;;1.85;;
47219;SDS011;32961;51.936;4.788;2023-07-13T11:28:26;3.00;;;1.75;;
47219;SDS011;32961;51.936;4.788;2023-07-13T11:31:01;11.25;;;2.05;;
47219;SDS011;32961;51.936;4.788;2023-07-13T11:33:52;2.88;;;1.77;;
47219;SDS011;32961;51.936;4.788;2023-07-13T11:36:23;4.88;;;2.05;;
47219;SDS011;32961;51.936;4.788;2023-07-13T11:41:29;4.72;;;1.90;;
47219;SDS011;32961;51.936;4.788;2023-07-13T11:44:07;3.05;;;1.60;;
47219;SDS011;32961;51.936;4.788;2023-07-13T11:46:39;4.57;;;1.90;;
47219;SDS011;32961;51.936;4.788;2023-07-13T11:49:14;7.13;;;2.20;;
47219;SDS011;32961;51.936;4.788;2023-07-13T11:51:45;4.78;;;1.80;;
47219;SDS011;32961;51.936;4.788;2023-07-13T11:54:25;4.20;;;2.17;;
47219;SDS011;32961;51.936;4.788;2023-07-13T11:56:57;3.25;;;1.83;;
47219;SDS011;32961;51.936;4.788;2023-07-13T11:59:29;7.10;;;2.60;;
47219;SDS011;32961;51.936;4.788;2023-07-13T12:01:58;10.10;;;2.97;;
47219;SDS011;32961;51.936;4.788;2023-07-13T12:04:30;5.03;;;2.03;;
47219;SDS011;32961;51.936;4.788;2023-07-13T12:07:05;6.10;;;2.33;;
47219;SDS011;32961;51.936;4.788;2023-07-13T12:12:09;5.07;;;2.47;;
47219;SDS011;32961;51.936;4.788;2023-07-13T12:14:39;3.80;;;2.20;;
47219;SDS011;32961;51.936;4.788;2023-07-13T12:17:16;7.78;;;2.97;;
47219;SDS011;32961;51.936;4.788;2023-07-13T12:19:47;7.32;;;2.33;;
47219;SDS011;32961;51.936;4.788;2023-07-13T12:22:16;9.88;;;2.67;;
47219;SDS011;32961;51.936;4.788;2023-07-13T12:24:48;6.07;;;2.25;;
47219;SDS011;32961;51.936;4.788;2023-07-13T12:27:18;5.97;;;2.78;;
47219;SDS011;32961;51.936;4.788;2023-07-13T12:29:49;6.70;;;2.25;;
47219;SDS011;32961;51.936;4.788;2023-07-13T12:32:20;7.78;;;2.50;;
47219;SDS011;32961;51.936;4.788;2023-07-13T12:34:52;6.22;;;2.10;;
47219;SDS011;32961;51.936;4.788;2023-07-13T12:39:51;8.85;;;2.47;;
47219;SDS011;32961;51.936;4.788;2023-07-13T12:42:20;6.13;;;2.45;;
47219;SDS011;32961;51.936;4.788;2023-07-13T12:44:53;11.05;;;2.10;;
47219;SDS011;32961;51.936;4.788;2023-07-13T12:47:21;6.28;;;2.30;;
47219;SDS011;32961;51.936;4.788;2023-07-13T12:49:50;9.32;;;2.20;;
47219;SDS011;32961;51.936;4.788;2023-07-13T12:52:22;10.38;;;2.10;;
47219;SDS011;32961;51.936;4.788;2023-07-13T12:54:58;7.07;;;2.10;;
47219;SDS011;32961;51.936;4.788;2023-07-13T12:57:37;5.55;;;2.38;;
47219;SDS011;32961;51.936;4.788;2023-07-13T13:00:13;6.15;;;2.42;;
47219;SDS011;32961;51.936;4.788;2023-07-13T13:02:51;4.18;;;1.98;;
47219;SDS011;32961;51.936;4.788;2023-07-13T13:05:30;4.10;;;2.00;;
47219;SDS011;32961;51.936;4.788;2023-07-13T13:08:00;6.05;;;2.22;;
47219;SDS011;32961;51.936;4.788;2023-07-13T13:10:29;5.18;;;2.20;;
47219;SDS011;32961;51.936;4.788;2023-07-13T13:12:57;52.35;;;4.10;;
47219;SDS011;32961;51.936;4.788;2023-07-13T13:15:25;6.45;;;2.10;;
47219;SDS011;32961;51.936;4.788;2023-07-13T13:17:53;13.68;;;2.40;;
47219;SDS011;32961;51.936;4.788;2023-07-13T13:20:21;5.30;;;2.15;;
47219;SDS011;32961;51.936;4.788;2023-07-13T13:22:52;5.60;;;2.20;;
47219;SDS011;32961;51.936;4.788;2023-07-13T13:25:21;5.05;;;2.28;;
47219;SDS011;32961;51.936;4.788;2023-07-13T13:27:50;4.45;;;2.20;;
47219;SDS011;32961;51.936;4.788;2023-07-13T13:30:18;4.75;;;2.03;;
47219;SDS011;32961;51.936;4.788;2023-07-13T13:32:47;10.60;;;1.75;;
47219;SDS011;32961;51.936;4.788;2023-07-13T13:35:15;6.85;;;1.73;;
47219;SDS011;32961;51.936;4.788;2023-07-13T13:37:44;5.68;;;1.70;;
47219;SDS011;32961;51.936;4.788;2023-07-13T13:40:14;6.65;;;2.33;;
47219;SDS011;32961;51.936;4.788;2023-07-13T13:42:43;5.43;;;1.85;;
47219;SDS011;32961;51.936;4.788;2023-07-13T13:45:12;5.88;;;2.00;;
47219;SDS011;32961;51.936;4.788;2023-07-13T13:47:42;4.38;;;1.95;;
47219;SDS011;32961;51.936;4.788;2023-07-13T13:50:12;5.97;;;2.03;;
47219;SDS011;32961;51.936;4.788;2023-07-13T13:52:42;6.53;;;1.67;;
47219;SDS011;32961;51.936;4.788;2023-07-13T13:55:13;7.50;;;1.75;;
47219;SDS011;32961;51.936;4.788;2023-07-13T13:57:41;5.60;;;2.20;;
47219;SDS011;32961;51.936;4.788;2023-07-13T14:00:10;6.20;;;1.90;;
47219;SDS011;32961;51.936;4.788;2023-07-13T14:02:41;5.05;;;1.70;;
47219;SDS011;32961;51.936;4.788;2023-07-13T14:05:14;4.25;;;1.83;;
47219;SDS011;32961;51.936;4.788;2023-07-13T14:07:45;4.10;;;1.63;;
47219;SDS011;32961;51.936;4.788;2023-07-13T14:10:14;5.32;;;1.40;;
47219;SDS011;32961;51.936;4.788;2023-07-13T14:12:44;4.63;;;1.90;;
47219;SDS011;32961;51.936;4.788;2023-07-13T14:15:17;4.70;;;2.13;;
47219;SDS011;32961;51.936;4.788;2023-07-13T14:17:47;3.50;;;1.83;;
47219;SDS011;32961;51.936;4.788;2023-07-13T14:20:16;2.97;;;1.48;;
47219;SDS011;32961;51.936;4.788;2023-07-13T14:22:45;4.32;;;1.70;;
47219;SDS011;32961;51.936;4.788;2023-07-13T14:25:15;3.75;;;1.63;;
47219;SDS011;32961;51.936;4.788;2023-07-13T14:27:45;6.45;;;1.60;;
47219;SDS011;32961;51.936;4.788;2023-07-13T14:30:14;3.50;;;1.60;;
47219;SDS011;32961;51.936;4.788;2023-07-13T14:32:46;4.55;;;1.35;;
47219;SDS011;32961;51.936;4.788;2023-07-13T14:35:16;7.70;;;1.90;;
47219;SDS011;32961;51.936;4.788;2023-07-13T14:37:48;4.43;;;1.60;;
47219;SDS011;32961;51.936;4.788;2023-07-13T14:40:17;3.15;;;1.60;;
47219;SDS011;32961;51.936;4.788;2023-07-13T14:42:49;4.28;;;1.48;;
47219;SDS011;32961;51.936;4.788;2023-07-13T14:45:18;4.20;;;1.58;;
47219;SDS011;32961;51.936;4.788;2023-07-13T14:47:47;3.55;;;1.55;;
47219;SDS011;32961;51.936;4.788;2023-07-13T14:50:16;5.30;;;1.60;;
47219;SDS011;32961;51.936;4.788;2023-07-13T14:52:46;2.40;;;1.63;;
47219;SDS011;32961;51.936;4.788;2023-07-13T14:55:16;4.32;;;1.88;;
47219;SDS011;32961;51.936;4.788;2023-07-13T14:57:45;5.43;;;2.17;;
47219;SDS011;32961;51.936;4.788;2023-07-13T15:00:14;4.43;;;1.95;;
47219;SDS011;32961;51.936;4.788;2023-07-13T15:02:45;7.25;;;1.50;;
47219;SDS011;32961;51.936;4.788;2023-07-13T15:05:17;7.25;;;1.85;;
47219;SDS011;32961;51.936;4.788;2023-07-13T15:07:49;4.28;;;1.55;;
47219;SDS011;32961;51.936;4.788;2023-07-13T15:10:18;3.60;;;1.60;;
47219;SDS011;32961;51.936;4.788;2023-07-13T15:12:47;4.00;;;1.33;;
47219;SDS011;32961;51.936;4.788;2023-07-13T15:15:15;3.13;;;1.50;;